sensor_id;sensor_type;location;lat;lon;timestamp;P1;durP1;ratioP1;P2;durP2;ratioP2
40373;SDS011;26079;45.958;12.492;2022-12-01T00:00:33;37.33;;;24.92;;
40373;SDS011;26079;45.958;12.492;2022-12-01T00:02:58;31.15;;;25.45;;
40373;SDS011;26079;45.958;12.492;2022-12-01T00:05:25;31.52;;;24.80;;
40373;SDS011;26079;45.958;12.492;2022-12-01T00:07:51;36.67;;;24.40;;
40373;SDS011;26079;45.958;12.492;2022-12-01T00:10:16;36.67;;;26.45;;
40373;SDS011;26079;45.958;12.492;2022-12-01T00:12:55;25.88;;;21.42;;
40373;SDS011;26079;45.958;12.492;2022-12-01T00:15:24;26.23;;;22.77;;
40373;SDS011;26079;45.958;12.492;2022-12-01T00:17:50;29.90;;;21.80;;
40373;SDS011;26079;45.958;12.492;2022-12-01T00:20:17;31.33;;;23.40;;
40373;SDS011;26079;45.958;12.492;2022-12-01T00:22:45;32.33;;;22.05;;
40373;SDS011;26079;45.958;12.492;2022-12-01T00:25:12;34.50;;;23.52;;
40373;SDS011;26079;45.958;12.492;2022-12-01T00:27:40;26.80;;;22.33;;
40373;SDS011;26079;45.958;12.492;2022-12-01T00:30:07;27.33;;;21.33;;
40373;SDS011;26079;45.958;12.492;2022-12-01T00:32:35;26.42;;;21.60;;
40373;SDS011;26079;45.958;12.492;2022-12-01T00:35:01;28.92;;;21.40;;
40373;SDS011;26079;45.958;12.492;2022-12-01T00:37:31;27.98;;;21.50;;
40373;SDS011;26079;45.958;12.492;2022-12-01T00:39:58;32.78;;;21.17;;
40373;SDS011;26079;45.958;12.492;2022-12-01T00:42:24;26.77;;;20.52;;
40373;SDS011;26079;45.958;12.492;2022-12-01T00:44:51;27.08;;;20.33;;
40373;SDS011;26079;45.958;12.492;2022-12-01T00:47:16;31.73;;;20.25;;
40373;SDS011;26079;45.958;12.492;2022-12-01T00:49:42;27.05;;;20.70;;
40373;SDS011;26079;45.958;12.492;2022-12-01T00:52:10;27.98;;;20.70;;
40373;SDS011;26079;45.958;12.492;2022-12-01T00:54:36;26.40;;;20.95;;
40373;SDS011;26079;45.958;12.492;2022-12-01T00:57:02;23.85;;;18.83;;
40373;SDS011;26079;45.958;12.492;2022-12-01T00:59:28;25.30;;;19.25;;
40373;SDS011;26079;45.958;12.492;2022-12-01T01:01:53;26.33;;;19.65;;
40373;SDS011;26079;45.958;12.492;2022-12-01T01:04:19;26.52;;;19.35;;
40373;SDS011;26079;45.958;12.492;2022-12-01T01:06:45;28.35;;;20.33;;
40373;SDS011;26079;45.958;12.492;2022-12-01T01:09:11;25.13;;;19.45;;
40373;SDS011;26079;45.958;12.492;2022-12-01T01:11:38;24.55;;;18.08;;
40373;SDS011;26079;45.958;12.492;2022-12-01T01:14:04;24.40;;;17.42;;
40373;SDS011;26079;45.958;12.492;2022-12-01T01:16:31;25.05;;;17.83;;
40373;SDS011;26079;45.958;12.492;2022-12-01T01:18:57;21.67;;;16.42;;
40373;SDS011;26079;45.958;12.492;2022-12-01T01:21:23;19.73;;;16.20;;
40373;SDS011;26079;45.958;12.492;2022-12-01T01:23:50;22.35;;;16.55;;
40373;SDS011;26079;45.958;12.492;2022-12-01T01:26:19;22.80;;;16.15;;
40373;SDS011;26079;45.958;12.492;2022-12-01T01:28:49;20.90;;;16.50;;
40373;SDS011;26079;45.958;12.492;2022-12-01T01:31:16;16.67;;;14.95;;
40373;SDS011;26079;45.958;12.492;2022-12-01T01:33:46;23.63;;;15.48;;
40373;SDS011;26079;45.958;12.492;2022-12-01T01:36:13;22.67;;;14.60;;
40373;SDS011;26079;45.958;12.492;2022-12-01T01:38:39;20.92;;;15.95;;
40373;SDS011;26079;45.958;12.492;2022-12-01T01:41:05;22.83;;;15.18;;
40373;SDS011;26079;45.958;12.492;2022-12-01T01:46:21;26.05;;;16.75;;
40373;SDS011;26079;45.958;12.492;2022-12-01T01:51:36;29.80;;;20.83;;
40373;SDS011;26079;45.958;12.492;2022-12-01T01:54:19;33.28;;;24.92;;
40373;SDS011;26079;45.958;12.492;2022-12-01T01:56:47;30.90;;;22.35;;
40373;SDS011;26079;45.958;12.492;2022-12-01T01:59:17;28.63;;;21.48;;
40373;SDS011;26079;45.958;12.492;2022-12-01T02:01:49;30.52;;;21.10;;
40373;SDS011;26079;45.958;12.492;2022-12-01T02:04:22;28.58;;;21.08;;
40373;SDS011;26079;45.958;12.492;2022-12-01T02:06:48;27.25;;;20.98;;
40373;SDS011;26079;45.958;12.492;2022-12-01T02:09:13;22.83;;;17.38;;
40373;SDS011;26079;45.958;12.492;2022-12-01T02:11:52;19.17;;;15.50;;
40373;SDS011;26079;45.958;12.492;2022-12-01T02:14:40;18.33;;;13.13;;
40373;SDS011;26079;45.958;12.492;2022-12-01T02:28:20;14.57;;;11.25;;
40373;SDS011;26079;45.958;12.492;2022-12-01T02:31:07;14.32;;;11.35;;
40373;SDS011;26079;45.958;12.492;2022-12-01T02:34:37;38.65;;;18.25;;
40373;SDS011;26079;45.958;12.492;2022-12-01T02:37:20;20.33;;;13.80;;
40373;SDS011;26079;45.958;12.492;2022-12-01T02:39:57;16.20;;;11.95;;
40373;SDS011;26079;45.958;12.492;2022-12-01T02:42:44;19.17;;;12.93;;
40373;SDS011;26079;45.958;12.492;2022-12-01T02:48:03;16.20;;;11.48;;
40373;SDS011;26079;45.958;12.492;2022-12-01T02:50:32;17.30;;;12.07;;
40373;SDS011;26079;45.958;12.492;2022-12-01T02:53:00;14.80;;;12.98;;
40373;SDS011;26079;45.958;12.492;2022-12-01T02:55:29;23.98;;;12.90;;
40373;SDS011;26079;45.958;12.492;2022-12-01T02:57:55;14.82;;;10.65;;
40373;SDS011;26079;45.958;12.492;2022-12-01T03:00:20;13.82;;;10.05;;
40373;SDS011;26079;45.958;12.492;2022-12-01T03:05:54;14.15;;;11.02;;
40373;SDS011;26079;45.958;12.492;2022-12-01T03:08:49;14.52;;;10.35;;
40373;SDS011;26079;45.958;12.492;2022-12-01T03:11:24;14.07;;;8.90;;
40373;SDS011;26079;45.958;12.492;2022-12-01T03:16:49;15.98;;;11.10;;
40373;SDS011;26079;45.958;12.492;2022-12-01T03:21:50;12.45;;;10.05;;
40373;SDS011;26079;45.958;12.492;2022-12-01T03:27:02;11.25;;;8.75;;
40373;SDS011;26079;45.958;12.492;2022-12-01T03:29:37;10.25;;;8.30;;
40373;SDS011;26079;45.958;12.492;2022-12-01T03:32:08;14.70;;;9.52;;
40373;SDS011;26079;45.958;12.492;2022-12-01T03:35:16;13.68;;;9.20;;
40373;SDS011;26079;45.958;12.492;2022-12-01T03:37:52;11.55;;;9.05;;
40373;SDS011;26079;45.958;12.492;2022-12-01T03:40:27;15.07;;;10.45;;
40373;SDS011;26079;45.958;12.492;2022-12-01T03:42:58;12.10;;;8.93;;
40373;SDS011;26079;45.958;12.492;2022-12-01T03:48:39;9.50;;;8.18;;
40373;SDS011;26079;45.958;12.492;2022-12-01T03:51:17;10.98;;;8.43;;
40373;SDS011;26079;45.958;12.492;2022-12-01T03:56:33;13.13;;;8.45;;
40373;SDS011;26079;45.958;12.492;2022-12-01T03:59:02;8.60;;;7.30;;
40373;SDS011;26079;45.958;12.492;2022-12-01T04:01:33;11.18;;;8.70;;
40373;SDS011;26079;45.958;12.492;2022-12-01T04:04:04;8.68;;;7.78;;
40373;SDS011;26079;45.958;12.492;2022-12-01T04:06:31;8.80;;;7.93;;
40373;SDS011;26079;45.958;12.492;2022-12-01T04:08:57;10.63;;;8.55;;
40373;SDS011;26079;45.958;12.492;2022-12-01T04:11:23;8.65;;;7.68;;
40373;SDS011;26079;45.958;12.492;2022-12-01T04:14:07;9.48;;;7.57;;
40373;SDS011;26079;45.958;12.492;2022-12-01T04:16:33;10.30;;;7.85;;
40373;SDS011;26079;45.958;12.492;2022-12-01T04:18:58;15.20;;;9.07;;
40373;SDS011;26079;45.958;12.492;2022-12-01T04:21:24;10.45;;;7.70;;
40373;SDS011;26079;45.958;12.492;2022-12-01T04:23:49;7.10;;;6.40;;
40373;SDS011;26079;45.958;12.492;2022-12-01T04:26:25;8.60;;;7.00;;
40373;SDS011;26079;45.958;12.492;2022-12-01T04:28:56;8.73;;;6.60;;
40373;SDS011;26079;45.958;12.492;2022-12-01T04:31:22;8.82;;;6.70;;
40373;SDS011;26079;45.958;12.492;2022-12-01T04:33:48;11.98;;;7.78;;
40373;SDS011;26079;45.958;12.492;2022-12-01T04:36:14;8.10;;;6.95;;
40373;SDS011;26079;45.958;12.492;2022-12-01T04:38:39;15.00;;;8.90;;
40373;SDS011;26079;45.958;12.492;2022-12-01T04:41:08;292.40;;;124.57;;
40373;SDS011;26079;45.958;12.492;2022-12-01T04:43:35;60.67;;;30.63;;
40373;SDS011;26079;45.958;12.492;2022-12-01T04:46:02;45.28;;;20.23;;
40373;SDS011;26079;45.958;12.492;2022-12-01T04:48:28;25.75;;;14.60;;
40373;SDS011;26079;45.958;12.492;2022-12-01T04:50:54;21.13;;;11.20;;
40373;SDS011;26079;45.958;12.492;2022-12-01T04:53:20;12.18;;;7.70;;
40373;SDS011;26079;45.958;12.492;2022-12-01T04:55:45;7.65;;;6.00;;
40373;SDS011;26079;45.958;12.492;2022-12-01T04:58:11;12.10;;;6.47;;
40373;SDS011;26079;45.958;12.492;2022-12-01T05:00:37;22.25;;;6.80;;
40373;SDS011;26079;45.958;12.492;2022-12-01T05:03:02;5.47;;;4.40;;
40373;SDS011;26079;45.958;12.492;2022-12-01T05:05:28;5.40;;;4.40;;
40373;SDS011;26079;45.958;12.492;2022-12-01T05:07:54;5.07;;;4.50;;
40373;SDS011;26079;45.958;12.492;2022-12-01T05:10:22;7.13;;;4.50;;
40373;SDS011;26079;45.958;12.492;2022-12-01T05:12:48;4.40;;;3.97;;
40373;SDS011;26079;45.958;12.492;2022-12-01T05:15:13;6.25;;;4.25;;
40373;SDS011;26079;45.958;12.492;2022-12-01T05:17:39;5.15;;;4.45;;
40373;SDS011;26079;45.958;12.492;2022-12-01T05:20:05;4.97;;;4.18;;
40373;SDS011;26079;45.958;12.492;2022-12-01T05:22:50;4.10;;;3.70;;
40373;SDS011;26079;45.958;12.492;2022-12-01T05:25:16;3.97;;;3.58;;
40373;SDS011;26079;45.958;12.492;2022-12-01T05:27:43;4.07;;;3.63;;
40373;SDS011;26079;45.958;12.492;2022-12-01T05:30:09;5.03;;;3.97;;
40373;SDS011;26079;45.958;12.492;2022-12-01T05:32:35;3.88;;;3.53;;
40373;SDS011;26079;45.958;12.492;2022-12-01T05:35:01;4.57;;;3.50;;
40373;SDS011;26079;45.958;12.492;2022-12-01T05:37:26;4.30;;;3.53;;
40373;SDS011;26079;45.958;12.492;2022-12-01T05:39:57;6.05;;;4.28;;
40373;SDS011;26079;45.958;12.492;2022-12-01T05:42:22;5.00;;;4.28;;
40373;SDS011;26079;45.958;12.492;2022-12-01T05:44:48;5.75;;;4.30;;
40373;SDS011;26079;45.958;12.492;2022-12-01T05:47:14;4.88;;;4.47;;
40373;SDS011;26079;45.958;12.492;2022-12-01T05:49:40;6.68;;;4.32;;
40373;SDS011;26079;45.958;12.492;2022-12-01T05:52:05;4.15;;;3.63;;
40373;SDS011;26079;45.958;12.492;2022-12-01T05:54:31;5.55;;;4.53;;
40373;SDS011;26079;45.958;12.492;2022-12-01T05:56:57;4.45;;;4.03;;
40373;SDS011;26079;45.958;12.492;2022-12-01T05:59:22;7.53;;;5.30;;
40373;SDS011;26079;45.958;12.492;2022-12-01T06:01:48;7.20;;;5.18;;
40373;SDS011;26079;45.958;12.492;2022-12-01T06:04:14;5.95;;;5.35;;
40373;SDS011;26079;45.958;12.492;2022-12-01T06:06:39;6.53;;;5.38;;
40373;SDS011;26079;45.958;12.492;2022-12-01T06:09:05;9.32;;;5.10;;
40373;SDS011;26079;45.958;12.492;2022-12-01T06:11:32;7.72;;;6.40;;
40373;SDS011;26079;45.958;12.492;2022-12-01T06:13:58;6.63;;;5.15;;
40373;SDS011;26079;45.958;12.492;2022-12-01T06:16:23;6.65;;;6.00;;
40373;SDS011;26079;45.958;12.492;2022-12-01T06:18:49;6.13;;;5.53;;
40373;SDS011;26079;45.958;12.492;2022-12-01T06:21:15;7.07;;;5.70;;
40373;SDS011;26079;45.958;12.492;2022-12-01T06:23:41;8.65;;;6.43;;
40373;SDS011;26079;45.958;12.492;2022-12-01T06:26:06;9.98;;;5.82;;
40373;SDS011;26079;45.958;12.492;2022-12-01T06:28:32;7.47;;;5.20;;
40373;SDS011;26079;45.958;12.492;2022-12-01T06:30:58;6.72;;;5.63;;
40373;SDS011;26079;45.958;12.492;2022-12-01T06:33:23;6.15;;;5.22;;
40373;SDS011;26079;45.958;12.492;2022-12-01T06:35:55;10.45;;;6.75;;
40373;SDS011;26079;45.958;12.492;2022-12-01T06:38:25;8.40;;;7.00;;
40373;SDS011;26079;45.958;12.492;2022-12-01T06:40:54;7.75;;;6.75;;
40373;SDS011;26079;45.958;12.492;2022-12-01T06:43:20;8.35;;;6.65;;
40373;SDS011;26079;45.958;12.492;2022-12-01T06:45:45;9.13;;;6.47;;
40373;SDS011;26079;45.958;12.492;2022-12-01T06:48:11;8.70;;;7.78;;
40373;SDS011;26079;45.958;12.492;2022-12-01T06:50:37;13.85;;;7.63;;
40373;SDS011;26079;45.958;12.492;2022-12-01T06:53:02;10.10;;;7.60;;
40373;SDS011;26079;45.958;12.492;2022-12-01T06:55:28;14.88;;;8.02;;
40373;SDS011;26079;45.958;12.492;2022-12-01T06:57:54;8.98;;;7.22;;
40373;SDS011;26079;45.958;12.492;2022-12-01T07:00:23;9.38;;;7.95;;
40373;SDS011;26079;45.958;12.492;2022-12-01T07:02:48;13.13;;;10.07;;
40373;SDS011;26079;45.958;12.492;2022-12-01T07:05:14;15.10;;;11.15;;
40373;SDS011;26079;45.958;12.492;2022-12-01T07:07:40;17.58;;;11.63;;
40373;SDS011;26079;45.958;12.492;2022-12-01T07:10:06;15.82;;;11.90;;
40373;SDS011;26079;45.958;12.492;2022-12-01T07:12:32;15.55;;;12.45;;
40373;SDS011;26079;45.958;12.492;2022-12-01T07:14:58;12.63;;;9.45;;
40373;SDS011;26079;45.958;12.492;2022-12-01T07:17:24;10.82;;;9.35;;
40373;SDS011;26079;45.958;12.492;2022-12-01T07:19:50;10.80;;;7.88;;
40373;SDS011;26079;45.958;12.492;2022-12-01T07:22:16;10.15;;;8.50;;
40373;SDS011;26079;45.958;12.492;2022-12-01T07:24:41;19.92;;;13.30;;
40373;SDS011;26079;45.958;12.492;2022-12-01T07:27:07;18.13;;;12.98;;
40373;SDS011;26079;45.958;12.492;2022-12-01T07:29:33;21.42;;;11.48;;
40373;SDS011;26079;45.958;12.492;2022-12-01T07:31:58;18.23;;;13.18;;
40373;SDS011;26079;45.958;12.492;2022-12-01T07:34:24;16.58;;;11.27;;
40373;SDS011;26079;45.958;12.492;2022-12-01T07:36:49;18.27;;;13.32;;
40373;SDS011;26079;45.958;12.492;2022-12-01T07:39:15;18.25;;;13.35;;
40373;SDS011;26079;45.958;12.492;2022-12-01T07:41:41;16.83;;;12.77;;
40373;SDS011;26079;45.958;12.492;2022-12-01T07:44:08;19.80;;;14.00;;
40373;SDS011;26079;45.958;12.492;2022-12-01T07:46:34;19.77;;;14.02;;
40373;SDS011;26079;45.958;12.492;2022-12-01T07:49:00;21.48;;;14.00;;
40373;SDS011;26079;45.958;12.492;2022-12-01T07:51:30;20.27;;;16.00;;
40373;SDS011;26079;45.958;12.492;2022-12-01T07:53:59;22.30;;;16.65;;
40373;SDS011;26079;45.958;12.492;2022-12-01T07:56:26;19.15;;;13.55;;
40373;SDS011;26079;45.958;12.492;2022-12-01T07:58:52;19.02;;;14.95;;
40373;SDS011;26079;45.958;12.492;2022-12-01T08:01:19;19.88;;;15.55;;
40373;SDS011;26079;45.958;12.492;2022-12-01T08:03:50;14.00;;;11.95;;
40373;SDS011;26079;45.958;12.492;2022-12-01T08:06:18;20.52;;;13.43;;
40373;SDS011;26079;45.958;12.492;2022-12-01T08:08:44;14.38;;;10.77;;
40373;SDS011;26079;45.958;12.492;2022-12-01T08:11:12;24.65;;;15.43;;
40373;SDS011;26079;45.958;12.492;2022-12-01T08:13:40;19.50;;;15.30;;
40373;SDS011;26079;45.958;12.492;2022-12-01T08:16:07;96.53;;;80.65;;
40373;SDS011;26079;45.958;12.492;2022-12-01T08:18:34;32.50;;;21.05;;
40373;SDS011;26079;45.958;12.492;2022-12-01T08:21:01;27.02;;;22.58;;
40373;SDS011;26079;45.958;12.492;2022-12-01T08:23:28;31.17;;;20.92;;
40373;SDS011;26079;45.958;12.492;2022-12-01T08:25:54;22.38;;;16.77;;
40373;SDS011;26079;45.958;12.492;2022-12-01T08:28:24;20.58;;;15.82;;
40373;SDS011;26079;45.958;12.492;2022-12-01T08:30:49;21.38;;;15.60;;
40373;SDS011;26079;45.958;12.492;2022-12-01T08:33:15;19.00;;;14.57;;
40373;SDS011;26079;45.958;12.492;2022-12-01T08:35:40;23.30;;;17.15;;
40373;SDS011;26079;45.958;12.492;2022-12-01T08:38:06;20.85;;;16.50;;
40373;SDS011;26079;45.958;12.492;2022-12-01T08:40:32;81.75;;;47.03;;
40373;SDS011;26079;45.958;12.492;2022-12-01T08:42:58;171.25;;;101.35;;
40373;SDS011;26079;45.958;12.492;2022-12-01T08:45:24;233.93;;;145.00;;
40373;SDS011;26079;45.958;12.492;2022-12-01T08:47:49;203.38;;;131.18;;
40373;SDS011;26079;45.958;12.492;2022-12-01T08:50:17;179.50;;;111.75;;
40373;SDS011;26079;45.958;12.492;2022-12-01T08:52:43;105.43;;;68.18;;
40373;SDS011;26079;45.958;12.492;2022-12-01T08:55:09;89.82;;;58.03;;
40373;SDS011;26079;45.958;12.492;2022-12-01T08:57:35;32.33;;;25.20;;
40373;SDS011;26079;45.958;12.492;2022-12-01T09:00:01;21.25;;;15.75;;
40373;SDS011;26079;45.958;12.492;2022-12-01T09:02:28;19.38;;;14.68;;
40373;SDS011;26079;45.958;12.492;2022-12-01T09:04:53;20.80;;;14.90;;
40373;SDS011;26079;45.958;12.492;2022-12-01T09:07:19;18.80;;;14.05;;
40373;SDS011;26079;45.958;12.492;2022-12-01T09:09:45;17.92;;;13.40;;
40373;SDS011;26079;45.958;12.492;2022-12-01T09:12:12;16.85;;;14.13;;
40373;SDS011;26079;45.958;12.492;2022-12-01T09:14:38;14.13;;;11.05;;
40373;SDS011;26079;45.958;12.492;2022-12-01T09:17:06;10.40;;;9.30;;
40373;SDS011;26079;45.958;12.492;2022-12-01T09:19:32;8.65;;;7.15;;
40373;SDS011;26079;45.958;12.492;2022-12-01T09:21:58;12.38;;;6.43;;
40373;SDS011;26079;45.958;12.492;2022-12-01T09:24:24;8.60;;;6.70;;
40373;SDS011;26079;45.958;12.492;2022-12-01T09:26:53;8.77;;;6.50;;
40373;SDS011;26079;45.958;12.492;2022-12-01T09:29:20;15.73;;;6.47;;
40373;SDS011;26079;45.958;12.492;2022-12-01T09:31:45;5.55;;;4.45;;
40373;SDS011;26079;45.958;12.492;2022-12-01T09:34:12;6.93;;;6.22;;
40373;SDS011;26079;45.958;12.492;2022-12-01T09:36:40;7.53;;;5.55;;
40373;SDS011;26079;45.958;12.492;2022-12-01T09:39:06;9.80;;;8.77;;
40373;SDS011;26079;45.958;12.492;2022-12-01T09:41:35;9.43;;;7.68;;
40373;SDS011;26079;45.958;12.492;2022-12-01T09:46:52;7.13;;;5.35;;
40373;SDS011;26079;45.958;12.492;2022-12-01T09:49:37;6.35;;;4.50;;
40373;SDS011;26079;45.958;12.492;2022-12-01T09:52:11;6.45;;;4.57;;
40373;SDS011;26079;45.958;12.492;2022-12-01T09:54:39;8.90;;;5.03;;
40373;SDS011;26079;45.958;12.492;2022-12-01T09:57:05;3.80;;;3.22;;
40373;SDS011;26079;45.958;12.492;2022-12-01T09:59:36;5.28;;;2.97;;
40373;SDS011;26079;45.958;12.492;2022-12-01T10:02:12;5.10;;;3.28;;
40373;SDS011;26079;45.958;12.492;2022-12-01T10:05:00;6.60;;;4.43;;
40373;SDS011;26079;45.958;12.492;2022-12-01T10:07:30;6.68;;;2.95;;
40373;SDS011;26079;45.958;12.492;2022-12-01T10:10:05;3.33;;;2.70;;
40373;SDS011;26079;45.958;12.492;2022-12-01T10:12:37;25.48;;;18.92;;
40373;SDS011;26079;45.958;12.492;2022-12-01T10:21:10;6.78;;;5.35;;
40373;SDS011;26079;45.958;12.492;2022-12-01T10:32:13;4.00;;;3.42;;
40373;SDS011;26079;45.958;12.492;2022-12-01T10:34:45;3.53;;;2.80;;
40373;SDS011;26079;45.958;12.492;2022-12-01T10:37:16;2.60;;;2.40;;
40373;SDS011;26079;45.958;12.492;2022-12-01T10:39:45;3.13;;;2.78;;
40373;SDS011;26079;45.958;12.492;2022-12-01T10:45:19;4.05;;;3.10;;
40373;SDS011;26079;45.958;12.492;2022-12-01T10:48:06;4.45;;;3.00;;
40373;SDS011;26079;45.958;12.492;2022-12-01T10:50:35;4.38;;;2.42;;
40373;SDS011;26079;45.958;12.492;2022-12-01T10:53:01;2.83;;;2.63;;
40373;SDS011;26079;45.958;12.492;2022-12-01T10:55:31;3.50;;;3.20;;
40373;SDS011;26079;45.958;12.492;2022-12-01T10:58:13;16.80;;;3.42;;
40373;SDS011;26079;45.958;12.492;2022-12-01T11:00:41;3.72;;;3.28;;
40373;SDS011;26079;45.958;12.492;2022-12-01T11:03:18;3.33;;;2.50;;
40373;SDS011;26079;45.958;12.492;2022-12-01T11:05:49;2.95;;;2.72;;
40373;SDS011;26079;45.958;12.492;2022-12-01T11:09:04;5.78;;;2.97;;
40373;SDS011;26079;45.958;12.492;2022-12-01T11:11:33;3.60;;;3.10;;
40373;SDS011;26079;45.958;12.492;2022-12-01T11:14:03;2.83;;;2.55;;
40373;SDS011;26079;45.958;12.492;2022-12-01T11:16:50;3.35;;;2.95;;
40373;SDS011;26079;45.958;12.492;2022-12-01T11:19:25;2.63;;;2.30;;
40373;SDS011;26079;45.958;12.492;2022-12-01T11:22:02;3.85;;;2.70;;
40373;SDS011;26079;45.958;12.492;2022-12-01T11:25:02;3.00;;;2.67;;
40373;SDS011;26079;45.958;12.492;2022-12-01T11:27:31;4.30;;;3.40;;
40373;SDS011;26079;45.958;12.492;2022-12-01T11:30:24;3.55;;;3.03;;
40373;SDS011;26079;45.958;12.492;2022-12-01T11:32:52;3.30;;;2.60;;
40373;SDS011;26079;45.958;12.492;2022-12-01T11:35:21;3.45;;;2.67;;
40373;SDS011;26079;45.958;12.492;2022-12-01T11:37:50;2.85;;;2.35;;
40373;SDS011;26079;45.958;12.492;2022-12-01T11:40:23;3.10;;;2.40;;
40373;SDS011;26079;45.958;12.492;2022-12-01T11:42:55;4.18;;;3.50;;
40373;SDS011;26079;45.958;12.492;2022-12-01T11:45:38;3.92;;;2.90;;
40373;SDS011;26079;45.958;12.492;2022-12-01T11:51:04;5.43;;;2.85;;
40373;SDS011;26079;45.958;12.492;2022-12-01T11:53:40;5.03;;;3.67;;
40373;SDS011;26079;45.958;12.492;2022-12-01T11:56:17;6.38;;;3.38;;
40373;SDS011;26079;45.958;12.492;2022-12-01T11:58:49;3.55;;;2.60;;
40373;SDS011;26079;45.958;12.492;2022-12-01T12:12:40;3.05;;;2.75;;
40373;SDS011;26079;45.958;12.492;2022-12-01T12:15:51;5.28;;;3.28;;
40373;SDS011;26079;45.958;12.492;2022-12-01T12:26:29;7.22;;;3.67;;
40373;SDS011;26079;45.958;12.492;2022-12-01T12:54:16;6.75;;;2.85;;
40373;SDS011;26079;45.958;12.492;2022-12-01T12:56:46;5.07;;;3.53;;
40373;SDS011;26079;45.958;12.492;2022-12-01T12:59:19;3.75;;;2.88;;
40373;SDS011;26079;45.958;12.492;2022-12-01T13:04:41;3.20;;;2.75;;
40373;SDS011;26079;45.958;12.492;2022-12-01T13:07:20;3.60;;;2.20;;
40373;SDS011;26079;45.958;12.492;2022-12-01T13:15:44;6.82;;;4.75;;
40373;SDS011;26079;45.958;12.492;2022-12-01T13:20:54;3.22;;;2.30;;
40373;SDS011;26079;45.958;12.492;2022-12-01T13:23:21;4.97;;;4.32;;
40373;SDS011;26079;45.958;12.492;2022-12-01T13:25:49;3.55;;;3.17;;
40373;SDS011;26079;45.958;12.492;2022-12-01T13:28:21;8.07;;;5.50;;
40373;SDS011;26079;45.958;12.492;2022-12-01T13:31:10;7.68;;;5.10;;
40373;SDS011;26079;45.958;12.492;2022-12-01T13:33:44;3.40;;;3.10;;
40373;SDS011;26079;45.958;12.492;2022-12-01T13:36:18;7.50;;;2.35;;
40373;SDS011;26079;45.958;12.492;2022-12-01T13:38:50;1.55;;;1.45;;
40373;SDS011;26079;45.958;12.492;2022-12-01T13:41:33;2.72;;;1.77;;
40373;SDS011;26079;45.958;12.492;2022-12-01T13:44:04;4.38;;;2.20;;
40373;SDS011;26079;45.958;12.492;2022-12-01T13:49:34;1.85;;;1.10;;
40373;SDS011;26079;45.958;12.492;2022-12-01T13:55:00;0.55;;;0.50;;
40373;SDS011;26079;45.958;12.492;2022-12-01T13:57:33;4.55;;;0.70;;
40373;SDS011;26079;45.958;12.492;2022-12-01T14:00:20;0.88;;;0.68;;
40373;SDS011;26079;45.958;12.492;2022-12-01T14:05:42;0.85;;;0.65;;
40373;SDS011;26079;45.958;12.492;2022-12-01T14:08:27;0.80;;;0.60;;
40373;SDS011;26079;45.958;12.492;2022-12-01T14:10:58;2.13;;;0.90;;
40373;SDS011;26079;45.958;12.492;2022-12-01T14:13:52;6.88;;;1.55;;
40373;SDS011;26079;45.958;12.492;2022-12-01T14:16:21;1.63;;;0.95;;
40373;SDS011;26079;45.958;12.492;2022-12-01T14:18:49;2.03;;;1.10;;
40373;SDS011;26079;45.958;12.492;2022-12-01T14:21:38;2.15;;;1.02;;
40373;SDS011;26079;45.958;12.492;2022-12-01T14:24:14;2.13;;;0.80;;
40373;SDS011;26079;45.958;12.492;2022-12-01T14:26:46;2.38;;;1.48;;
40373;SDS011;26079;45.958;12.492;2022-12-01T14:29:29;1.35;;;0.95;;
40373;SDS011;26079;45.958;12.492;2022-12-01T14:34:27;3.85;;;2.60;;
40373;SDS011;26079;45.958;12.492;2022-12-01T14:37:03;5.00;;;3.35;;
40373;SDS011;26079;45.958;12.492;2022-12-01T14:39:37;6.28;;;3.08;;
40373;SDS011;26079;45.958;12.492;2022-12-01T14:42:40;11.82;;;5.85;;
40373;SDS011;26079;45.958;12.492;2022-12-01T14:45:48;4.90;;;2.75;;
40373;SDS011;26079;45.958;12.492;2022-12-01T14:48:24;5.65;;;2.92;;
40373;SDS011;26079;45.958;12.492;2022-12-01T14:51:32;7.15;;;4.05;;
40373;SDS011;26079;45.958;12.492;2022-12-01T14:54:00;2.25;;;1.70;;
40373;SDS011;26079;45.958;12.492;2022-12-01T14:56:30;2.65;;;1.10;;
40373;SDS011;26079;45.958;12.492;2022-12-01T14:58:59;1.40;;;0.82;;
40373;SDS011;26079;45.958;12.492;2022-12-01T15:01:37;1.52;;;0.95;;
40373;SDS011;26079;45.958;12.492;2022-12-01T15:04:04;1.48;;;0.95;;
40373;SDS011;26079;45.958;12.492;2022-12-01T15:06:30;2.17;;;1.67;;
40373;SDS011;26079;45.958;12.492;2022-12-01T15:11:59;2.33;;;0.77;;
40373;SDS011;26079;45.958;12.492;2022-12-01T15:14:35;0.75;;;0.60;;
40373;SDS011;26079;45.958;12.492;2022-12-01T15:17:03;1.02;;;0.60;;
40373;SDS011;26079;45.958;12.492;2022-12-01T15:22:03;0.98;;;0.80;;
40373;SDS011;26079;45.958;12.492;2022-12-01T15:24:31;1.83;;;1.45;;
40373;SDS011;26079;45.958;12.492;2022-12-01T15:26:58;1.15;;;0.95;;
40373;SDS011;26079;45.958;12.492;2022-12-01T15:29:28;1.30;;;0.65;;
40373;SDS011;26079;45.958;12.492;2022-12-01T15:31:58;6.07;;;1.05;;
40373;SDS011;26079;45.958;12.492;2022-12-01T15:34:30;3.60;;;0.90;;
40373;SDS011;26079;45.958;12.492;2022-12-01T15:37:23;1.40;;;1.30;;
40373;SDS011;26079;45.958;12.492;2022-12-01T15:39:53;1.70;;;1.25;;
40373;SDS011;26079;45.958;12.492;2022-12-01T15:42:22;1.00;;;0.80;;
40373;SDS011;26079;45.958;12.492;2022-12-01T15:53:03;1.88;;;1.20;;
40373;SDS011;26079;45.958;12.492;2022-12-01T15:55:32;2.55;;;2.10;;
40373;SDS011;26079;45.958;12.492;2022-12-01T15:58:00;3.08;;;1.40;;
40373;SDS011;26079;45.958;12.492;2022-12-01T16:00:31;12.18;;;7.03;;
40373;SDS011;26079;45.958;12.492;2022-12-01T16:02:57;12.50;;;5.95;;
40373;SDS011;26079;45.958;12.492;2022-12-01T16:05:28;13.43;;;6.03;;
40373;SDS011;26079;45.958;12.492;2022-12-01T16:08:20;7.75;;;5.80;;
40373;SDS011;26079;45.958;12.492;2022-12-01T16:16:20;7.40;;;5.50;;
40373;SDS011;26079;45.958;12.492;2022-12-01T16:18:52;9.88;;;6.85;;
40373;SDS011;26079;45.958;12.492;2022-12-01T16:21:20;9.73;;;6.73;;
40373;SDS011;26079;45.958;12.492;2022-12-01T16:23:46;10.00;;;7.43;;
40373;SDS011;26079;45.958;12.492;2022-12-01T16:26:12;10.48;;;7.15;;
40373;SDS011;26079;45.958;12.492;2022-12-01T16:28:38;7.22;;;6.03;;
40373;SDS011;26079;45.958;12.492;2022-12-01T16:31:04;12.60;;;8.80;;
40373;SDS011;26079;45.958;12.492;2022-12-01T16:33:32;10.50;;;7.82;;
40373;SDS011;26079;45.958;12.492;2022-12-01T16:36:02;14.10;;;7.90;;
40373;SDS011;26079;45.958;12.492;2022-12-01T16:38:28;13.13;;;7.97;;
40373;SDS011;26079;45.958;12.492;2022-12-01T16:40:55;11.25;;;8.10;;
40373;SDS011;26079;45.958;12.492;2022-12-01T16:43:24;29.55;;;11.93;;
40373;SDS011;26079;45.958;12.492;2022-12-01T16:46:01;9.13;;;6.85;;
40373;SDS011;26079;45.958;12.492;2022-12-01T16:48:30;13.90;;;7.78;;
40373;SDS011;26079;45.958;12.492;2022-12-01T16:50:56;17.27;;;10.45;;
40373;SDS011;26079;45.958;12.492;2022-12-01T16:53:27;14.75;;;11.57;;
40373;SDS011;26079;45.958;12.492;2022-12-01T16:55:56;27.38;;;19.25;;
40373;SDS011;26079;45.958;12.492;2022-12-01T16:58:23;31.65;;;22.83;;
40373;SDS011;26079;45.958;12.492;2022-12-01T17:00:49;23.23;;;16.15;;
40373;SDS011;26079;45.958;12.492;2022-12-01T17:03:22;20.08;;;15.32;;
40373;SDS011;26079;45.958;12.492;2022-12-01T17:05:49;20.98;;;13.75;;
40373;SDS011;26079;45.958;12.492;2022-12-01T17:08:16;22.00;;;14.68;;